ENBN/BNN METAR and TAF weather

Enter ICAO airport designator
Station Type Date Time Source
ENBN METAR 2020/02/29 02:50 UTC NOAA

ENBN 290250Z AUTO VRB02KT 9999NDV FEW047/// SCT096/// M03/M04 Q0996


Station Type Date Time Source
ENBN Decoded METAR 2020/02/29 02:50 UTC NOAA

Bronnoysund / Bronnoy, Norway (ENBN) 65-28N 012-13E 9M
Feb 28, 2020 - 09:50 PM EST / 2020.02.29 0250 UTC
Wind: Variable at 2 MPH (2 KT):0
Sky conditions: partly cloudy
Temperature: 26 F (-3 C)
Dew Point: 24 F (-4 C)
Relative Humidity: 92%
Pressure (altimeter): 29.41 in. Hg (0996 hPa)
ob: ENBN 290250Z AUTO VRB02KT 9999NDV FEW047/// SCT096/// M03/M04 Q0996
cycle: 3

Station Type Date Time Source
ENBN TAF 2011/03/27 18:12 UTC NOAA

TAF TAF ENBN 261700Z 2618/2718 CNL

Example: see airport list